Startpagina
METAR-TAF:

METAR-TAF

Vliegvelden :

Luchthaven Diori Hamani

Niamey, Niger

breedte: 13-29N, lengte: 002-10E, hoogte: 223 m

Actueel weer

Dit bericht is 1 uur en het 6 minuten geleden gemaakt, om 11:00 UTC
Wind 13 kt uit het westzuidwesten, variërend tussen het zuidzuidwesten en het westen
Temperatuur 37°C
Vochtigheid 31%
Druk 1008 hPa
Zicht: 6000 m

METAR: DRRN 201100Z 25013KT 210V280 6000 NSC 37/17 Q1008 NOSIG

Tijdstip: 13:06 (12:06 UTC)

Verwachting

Dit bericht is 1 uur en het 6 minuten geleden gemaakt, om 11:00 UTC
Verwachting geldig van 20 om 12 UTC tot 21 om 18 UTC
Wind 10 kt uit het westzuidwesten
Zicht: 6000 m
Kans 40% :
Tijdelijke
van 20 om 16 UTC tot 20 om 21 UTC
Weinig wolken op 4500 ft, Cumulonimbus.
onweer

TAF: DRRN 201100Z 2012/2118 24010KT 6000 NSC PROB40 TEMPO 2016/2021 TS FEW045CB

Waarnemingen en weersverwachtingen van meer dan 4000 vliegvelden (METAR en TAF).

De beschikbare stations zijn de gele en rode punten op de kaart.

Ga met uw muis naar het station om de naam te zien.

Klik dan om waarnemingen en weersverwachtingen te zien.

kaart wijzigen: klik op de groene knoppen met een zwart kruis om in te zoomen, op de groene knop met een streepje om uit te zoomen of op de groene pijlen voor aangrenzende kaarten.


METAR-TAF: